Skip Navigation Links
NOAA logo - Click to go to the NOAA homepage
NOAA's National Weather Service
Alaska Aviation Weather Unit
  NWS logo - Click to go to the NWS homepage
Left Navbar Graphic     09 AKDT = 17 GMT

   
NOAA is celebrating 200 years of science, service, and stewardship. Visit the NOAA 200th celebration Web site to learn more.
USA.gov is the U.S. Government's official Web portal to all Federal, state and local government Web resources and services.
Facebook
NWS on Facebook

Important Change Regarding the AAWU Web Presence

 

Over the last several months, the AAWU has been working to navigate its webpages to a nationally supported server. Security, as well as other needs, have necessitated the change.  In the process, we have made an effort to enhance the functionality of our website, as well as some of our products. As of June 20, 2017, aawu.arh.noaa.gov will be discontinued. The new AAWU web address is weather.gov/aawu. It is now live and will run in-parallel with the old site until it is discontinued. Please send any feedback or questions regarding the new webpages to nws.ar.aawu.webauthors@noaa.gov.  Thank you for your patience during this time of transition.
AAWU Home :: Display TAF Add Bookmark
METAR PASK 231156Z AUTO 00000KT 10SM CLR 04/01 A2973 RMK AO2 SLP064
     T00390011 10128 20039 53007 $=

METAR PASK 231256Z AUTO 28006KT 10SM CLR 04/01 A2973 RMK AO2 SLP065
 T00440011 $=

METAR PASK 231356Z AUTO 27006KT 10SM CLR 04/01 A2974 RMK AO2 SLP068
     T00440006 $=

METAR PASK 231456Z AUTO 26007KT 10SM BKN012 04/01 A2976 RMK AO2 SLP075
     T00390011 53011 $=

SPECI PASK 231535Z AUTO 25006KT 10SM -RA OVC016 04/02 A2977 RMK AO2
     RAB22 P0000 $=

METAR PASK 231556Z AUTO 23005KT 10SM -RA OVC020 04/03 A2977 RMK AO2
 RAB22 SLP079 P0000 T00390033 $=

SPECI PASK 231604Z AUTO 24007KT 9SM -RA SCT008 OVC020 04/03 A2977 RMK
     AO2 P0000 $=

SPECI PASK 231623Z AUTO 24007KT 6SM RA BR BKN008 OVC016 04/03 A2978 RMK
     AO2 P0001 $=

SPECI PASK 231642Z AUTO 22006KT 10SM RA SCT008 BKN026 OVC036 04/03
 A2978 RMK AO2 P0004 $=

PASK 231653Z AUTO 21006KT 10SM RA FEW008 SCT028 OVC034 04/03 A2978
     RMK AO2 P0005 $=

METAR PASK 231656Z AUTO 22007KT 10SM RA FEW023 OVC034 04/03 A2978
 RMK AO2 SLP083 P0006 T00440033 $=


NOAA's National Weather Service
Alaska Aviation Weather Unit
6930 Sand Lake Road
Anchorage, AK 99502-1845
Disclaimer
Credits
Glossary
Privacy Policy
About Us
Career Opportunities
Contact AAWU Internet Services Site last modified: April, 17th 2012